sensor_id;sensor_type;location;lat;lon;timestamp;P1;durP1;ratioP1;P2;durP2;ratioP2
24157;SDS011;12316;50.904;4.200;2023-11-21T00:01:56;39.13;;;22.38;;
24157;SDS011;12316;50.904;4.200;2023-11-21T00:04:22;37.22;;;22.30;;
24157;SDS011;12316;50.904;4.200;2023-11-21T00:06:48;58.30;;;20.73;;
24157;SDS011;12316;50.904;4.200;2023-11-21T00:09:14;38.20;;;20.88;;
24157;SDS011;12316;50.904;4.200;2023-11-21T00:11:44;36.83;;;20.70;;
24157;SDS011;12316;50.904;4.200;2023-11-21T00:14:13;33.45;;;19.48;;
24157;SDS011;12316;50.904;4.200;2023-11-21T00:16:40;76.93;;;20.63;;
24157;SDS011;12316;50.904;4.200;2023-11-21T00:19:06;37.65;;;19.40;;
24157;SDS011;12316;50.904;4.200;2023-11-21T00:21:32;30.27;;;17.13;;
24157;SDS011;12316;50.904;4.200;2023-11-21T00:23:57;23.70;;;16.35;;
24157;SDS011;12316;50.904;4.200;2023-11-21T00:26:23;33.40;;;17.83;;
24157;SDS011;12316;50.904;4.200;2023-11-21T00:28:49;26.80;;;18.80;;
24157;SDS011;12316;50.904;4.200;2023-11-21T00:31:15;109.47;;;17.98;;
24157;SDS011;12316;50.904;4.200;2023-11-21T00:33:41;234.30;;;20.23;;
24157;SDS011;12316;50.904;4.200;2023-11-21T00:36:07;60.17;;;15.20;;
24157;SDS011;12316;50.904;4.200;2023-11-21T00:38:35;19.33;;;14.15;;
24157;SDS011;12316;50.904;4.200;2023-11-21T00:41:01;34.80;;;15.52;;
24157;SDS011;12316;50.904;4.200;2023-11-21T00:43:27;25.27;;;15.55;;
24157;SDS011;12316;50.904;4.200;2023-11-21T00:45:53;24.15;;;16.20;;
24157;SDS011;12316;50.904;4.200;2023-11-21T00:48:19;20.77;;;14.55;;
24157;SDS011;12316;50.904;4.200;2023-11-21T00:50:44;25.90;;;13.98;;
24157;SDS011;12316;50.904;4.200;2023-11-21T00:53:10;36.58;;;14.77;;
24157;SDS011;12316;50.904;4.200;2023-11-21T00:55:36;18.13;;;13.63;;
24157;SDS011;12316;50.904;4.200;2023-11-21T00:58:05;24.92;;;16.02;;
24157;SDS011;12316;50.904;4.200;2023-11-21T01:00:33;22.23;;;15.25;;
24157;SDS011;12316;50.904;4.200;2023-11-21T01:02:59;22.05;;;15.50;;
24157;SDS011;12316;50.904;4.200;2023-11-21T01:05:25;29.08;;;17.27;;
24157;SDS011;12316;50.904;4.200;2023-11-21T01:07:51;103.53;;;19.27;;
24157;SDS011;12316;50.904;4.200;2023-11-21T01:10:17;29.65;;;16.45;;
24157;SDS011;12316;50.904;4.200;2023-11-21T01:12:43;44.58;;;18.60;;
24157;SDS011;12316;50.904;4.200;2023-11-21T01:15:08;25.13;;;16.80;;
24157;SDS011;12316;50.904;4.200;2023-11-21T01:17:37;41.75;;;15.60;;
24157;SDS011;12316;50.904;4.200;2023-11-21T01:20:03;31.70;;;16.20;;
24157;SDS011;12316;50.904;4.200;2023-11-21T01:22:35;30.42;;;17.20;;
24157;SDS011;12316;50.904;4.200;2023-11-21T01:25:01;41.63;;;17.27;;
24157;SDS011;12316;50.904;4.200;2023-11-21T01:27:29;73.68;;;20.30;;
24157;SDS011;12316;50.904;4.200;2023-11-21T01:29:55;25.85;;;16.80;;
24157;SDS011;12316;50.904;4.200;2023-11-21T01:32:20;28.30;;;17.02;;
24157;SDS011;12316;50.904;4.200;2023-11-21T01:34:47;32.33;;;18.33;;
24157;SDS011;12316;50.904;4.200;2023-11-21T01:37:13;32.60;;;19.33;;
24157;SDS011;12316;50.904;4.200;2023-11-21T01:39:38;32.53;;;18.77;;
24157;SDS011;12316;50.904;4.200;2023-11-21T01:42:05;42.03;;;19.17;;
24157;SDS011;12316;50.904;4.200;2023-11-21T01:44:31;36.72;;;18.58;;
24157;SDS011;12316;50.904;4.200;2023-11-21T01:46:56;37.15;;;18.85;;
24157;SDS011;12316;50.904;4.200;2023-11-21T01:49:22;34.03;;;19.58;;
24157;SDS011;12316;50.904;4.200;2023-11-21T01:51:48;30.45;;;18.05;;
24157;SDS011;12316;50.904;4.200;2023-11-21T01:54:16;32.38;;;19.35;;
24157;SDS011;12316;50.904;4.200;2023-11-21T01:56:45;32.72;;;18.55;;
24157;SDS011;12316;50.904;4.200;2023-11-21T01:59:12;32.72;;;19.60;;
24157;SDS011;12316;50.904;4.200;2023-11-21T02:01:43;35.63;;;19.70;;
24157;SDS011;12316;50.904;4.200;2023-11-21T02:04:09;28.58;;;18.35;;
24157;SDS011;12316;50.904;4.200;2023-11-21T02:06:35;29.30;;;18.38;;
24157;SDS011;12316;50.904;4.200;2023-11-21T02:09:00;32.75;;;19.15;;
24157;SDS011;12316;50.904;4.200;2023-11-21T02:11:26;31.77;;;18.88;;
24157;SDS011;12316;50.904;4.200;2023-11-21T02:13:52;29.95;;;19.05;;
24157;SDS011;12316;50.904;4.200;2023-11-21T02:16:19;33.13;;;20.00;;
24157;SDS011;12316;50.904;4.200;2023-11-21T02:18:46;26.65;;;17.77;;
24157;SDS011;12316;50.904;4.200;2023-11-21T02:21:13;27.90;;;17.55;;
24157;SDS011;12316;50.904;4.200;2023-11-21T02:23:39;28.20;;;18.17;;
24157;SDS011;12316;50.904;4.200;2023-11-21T02:26:09;29.40;;;17.95;;
24157;SDS011;12316;50.904;4.200;2023-11-21T02:28:36;29.83;;;18.85;;
24157;SDS011;12316;50.904;4.200;2023-11-21T02:31:03;31.55;;;18.10;;
24157;SDS011;12316;50.904;4.200;2023-11-21T02:33:29;28.38;;;18.13;;
24157;SDS011;12316;50.904;4.200;2023-11-21T02:35:59;30.38;;;19.25;;
24157;SDS011;12316;50.904;4.200;2023-11-21T02:38:25;28.70;;;18.52;;
24157;SDS011;12316;50.904;4.200;2023-11-21T02:40:50;29.50;;;18.83;;
24157;SDS011;12316;50.904;4.200;2023-11-21T02:43:16;31.83;;;18.80;;
24157;SDS011;12316;50.904;4.200;2023-11-21T02:45:41;30.80;;;19.38;;
24157;SDS011;12316;50.904;4.200;2023-11-21T02:48:07;39.50;;;21.25;;
24157;SDS011;12316;50.904;4.200;2023-11-21T02:50:33;37.58;;;21.02;;
24157;SDS011;12316;50.904;4.200;2023-11-21T02:53:00;31.42;;;19.42;;
24157;SDS011;12316;50.904;4.200;2023-11-21T02:55:26;33.67;;;19.98;;
24157;SDS011;12316;50.904;4.200;2023-11-21T02:57:53;32.45;;;20.13;;
24157;SDS011;12316;50.904;4.200;2023-11-21T03:00:18;33.40;;;20.52;;
24157;SDS011;12316;50.904;4.200;2023-11-21T03:02:44;34.17;;;19.73;;
24157;SDS011;12316;50.904;4.200;2023-11-21T03:05:12;33.42;;;20.67;;
24157;SDS011;12316;50.904;4.200;2023-11-21T03:07:38;30.55;;;19.10;;
24157;SDS011;12316;50.904;4.200;2023-11-21T03:10:05;29.15;;;19.75;;
24157;SDS011;12316;50.904;4.200;2023-11-21T03:12:34;32.90;;;20.67;;
24157;SDS011;12316;50.904;4.200;2023-11-21T03:14:59;30.20;;;19.48;;
24157;SDS011;12316;50.904;4.200;2023-11-21T03:17:27;37.45;;;21.17;;
24157;SDS011;12316;50.904;4.200;2023-11-21T03:19:54;31.38;;;19.80;;
24157;SDS011;12316;50.904;4.200;2023-11-21T03:22:20;30.60;;;19.75;;
24157;SDS011;12316;50.904;4.200;2023-11-21T03:24:45;32.65;;;20.35;;
24157;SDS011;12316;50.904;4.200;2023-11-21T03:27:11;34.47;;;20.13;;
24157;SDS011;12316;50.904;4.200;2023-11-21T03:29:37;34.50;;;20.92;;
24157;SDS011;12316;50.904;4.200;2023-11-21T03:32:02;33.47;;;20.35;;
24157;SDS011;12316;50.904;4.200;2023-11-21T03:34:29;30.40;;;19.10;;
24157;SDS011;12316;50.904;4.200;2023-11-21T03:36:54;32.47;;;18.83;;
24157;SDS011;12316;50.904;4.200;2023-11-21T03:39:20;29.15;;;18.83;;
24157;SDS011;12316;50.904;4.200;2023-11-21T03:41:47;32.78;;;19.20;;
24157;SDS011;12316;50.904;4.200;2023-11-21T03:44:13;32.05;;;19.85;;
24157;SDS011;12316;50.904;4.200;2023-11-21T03:46:39;29.80;;;18.30;;
24157;SDS011;12316;50.904;4.200;2023-11-21T03:49:04;28.45;;;17.85;;
24157;SDS011;12316;50.904;4.200;2023-11-21T03:51:30;27.83;;;17.77;;
24157;SDS011;12316;50.904;4.200;2023-11-21T03:53:55;27.10;;;18.33;;
24157;SDS011;12316;50.904;4.200;2023-11-21T03:56:21;27.25;;;17.13;;
24157;SDS011;12316;50.904;4.200;2023-11-21T03:58:47;27.77;;;17.30;;
24157;SDS011;12316;50.904;4.200;2023-11-21T04:01:20;27.90;;;17.60;;
24157;SDS011;12316;50.904;4.200;2023-11-21T04:03:47;23.75;;;16.25;;
24157;SDS011;12316;50.904;4.200;2023-11-21T04:06:13;26.45;;;17.10;;
24157;SDS011;12316;50.904;4.200;2023-11-21T04:08:39;26.38;;;16.80;;
24157;SDS011;12316;50.904;4.200;2023-11-21T04:11:05;26.77;;;18.33;;
24157;SDS011;12316;50.904;4.200;2023-11-21T04:13:30;28.73;;;17.92;;
24157;SDS011;12316;50.904;4.200;2023-11-21T04:15:56;28.42;;;18.02;;
24157;SDS011;12316;50.904;4.200;2023-11-21T04:18:21;25.80;;;18.00;;
24157;SDS011;12316;50.904;4.200;2023-11-21T04:20:50;26.75;;;17.48;;
24157;SDS011;12316;50.904;4.200;2023-11-21T04:23:16;23.52;;;16.52;;
24157;SDS011;12316;50.904;4.200;2023-11-21T04:25:41;23.60;;;17.10;;
24157;SDS011;12316;50.904;4.200;2023-11-21T04:28:07;26.90;;;17.48;;
24157;SDS011;12316;50.904;4.200;2023-11-21T04:30:33;27.60;;;17.55;;
24157;SDS011;12316;50.904;4.200;2023-11-21T04:32:58;24.00;;;17.33;;
24157;SDS011;12316;50.904;4.200;2023-11-21T04:35:24;26.20;;;17.90;;
24157;SDS011;12316;50.904;4.200;2023-11-21T04:37:50;28.85;;;17.17;;
24157;SDS011;12316;50.904;4.200;2023-11-21T04:40:16;24.90;;;17.40;;
24157;SDS011;12316;50.904;4.200;2023-11-21T04:42:42;28.42;;;18.35;;
24157;SDS011;12316;50.904;4.200;2023-11-21T04:45:08;24.40;;;15.80;;
24157;SDS011;12316;50.904;4.200;2023-11-21T04:47:36;24.65;;;16.85;;
24157;SDS011;12316;50.904;4.200;2023-11-21T04:50:02;28.70;;;17.75;;
24157;SDS011;12316;50.904;4.200;2023-11-21T04:52:30;25.83;;;17.08;;
24157;SDS011;12316;50.904;4.200;2023-11-21T04:54:57;26.02;;;17.75;;
24157;SDS011;12316;50.904;4.200;2023-11-21T04:57:23;27.55;;;18.05;;
24157;SDS011;12316;50.904;4.200;2023-11-21T04:59:49;25.33;;;16.95;;
24157;SDS011;12316;50.904;4.200;2023-11-21T05:02:15;31.75;;;17.63;;
24157;SDS011;12316;50.904;4.200;2023-11-21T05:04:41;24.73;;;16.55;;
24157;SDS011;12316;50.904;4.200;2023-11-21T05:07:07;25.20;;;16.83;;
24157;SDS011;12316;50.904;4.200;2023-11-21T05:09:33;25.98;;;16.75;;
24157;SDS011;12316;50.904;4.200;2023-11-21T05:12:00;25.42;;;16.15;;
24157;SDS011;12316;50.904;4.200;2023-11-21T05:14:27;27.27;;;18.05;;
24157;SDS011;12316;50.904;4.200;2023-11-21T05:16:52;24.50;;;17.38;;
24157;SDS011;12316;50.904;4.200;2023-11-21T05:19:18;28.42;;;17.63;;
24157;SDS011;12316;50.904;4.200;2023-11-21T05:21:43;24.25;;;16.58;;
24157;SDS011;12316;50.904;4.200;2023-11-21T05:24:09;26.00;;;17.27;;
24157;SDS011;12316;50.904;4.200;2023-11-21T05:26:34;28.95;;;17.60;;
24157;SDS011;12316;50.904;4.200;2023-11-21T05:29:00;26.02;;;17.52;;
24157;SDS011;12316;50.904;4.200;2023-11-21T05:31:26;28.95;;;18.50;;
24157;SDS011;12316;50.904;4.200;2023-11-21T05:33:52;26.90;;;17.17;;
24157;SDS011;12316;50.904;4.200;2023-11-21T05:36:19;27.15;;;16.95;;
24157;SDS011;12316;50.904;4.200;2023-11-21T05:38:44;23.92;;;16.70;;
24157;SDS011;12316;50.904;4.200;2023-11-21T05:41:11;22.67;;;15.10;;
24157;SDS011;12316;50.904;4.200;2023-11-21T05:43:38;24.20;;;16.60;;
24157;SDS011;12316;50.904;4.200;2023-11-21T05:46:04;22.13;;;16.75;;
24157;SDS011;12316;50.904;4.200;2023-11-21T05:48:32;22.13;;;16.42;;
24157;SDS011;12316;50.904;4.200;2023-11-21T05:50:57;22.23;;;16.10;;
24157;SDS011;12316;50.904;4.200;2023-11-21T05:53:24;23.55;;;16.42;;
24157;SDS011;12316;50.904;4.200;2023-11-21T05:55:50;23.85;;;16.33;;
24157;SDS011;12316;50.904;4.200;2023-11-21T05:58:16;24.42;;;16.98;;
24157;SDS011;12316;50.904;4.200;2023-11-21T06:00:42;22.27;;;16.85;;
24157;SDS011;12316;50.904;4.200;2023-11-21T06:03:07;23.35;;;17.08;;
24157;SDS011;12316;50.904;4.200;2023-11-21T06:05:33;24.38;;;16.92;;
24157;SDS011;12316;50.904;4.200;2023-11-21T06:07:58;22.10;;;16.38;;
24157;SDS011;12316;50.904;4.200;2023-11-21T06:10:25;22.23;;;15.90;;
24157;SDS011;12316;50.904;4.200;2023-11-21T06:12:51;24.08;;;15.93;;
24157;SDS011;12316;50.904;4.200;2023-11-21T06:43:56;32.03;;;20.20;;
24157;SDS011;12316;50.904;4.200;2023-11-21T06:46:24;31.45;;;20.17;;
24157;SDS011;12316;50.904;4.200;2023-11-21T06:48:49;28.67;;;18.77;;
24157;SDS011;12316;50.904;4.200;2023-11-21T06:51:15;30.90;;;18.80;;
24157;SDS011;12316;50.904;4.200;2023-11-21T06:53:41;31.30;;;19.02;;
24157;SDS011;12316;50.904;4.200;2023-11-21T06:56:16;27.52;;;17.90;;
24157;SDS011;12316;50.904;4.200;2023-11-21T06:58:43;26.20;;;17.77;;
24157;SDS011;12316;50.904;4.200;2023-11-21T07:01:10;24.65;;;17.05;;
24157;SDS011;12316;50.904;4.200;2023-11-21T07:03:36;28.38;;;17.98;;
24157;SDS011;12316;50.904;4.200;2023-11-21T07:06:02;28.42;;;17.08;;
24157;SDS011;12316;50.904;4.200;2023-11-21T07:08:28;26.42;;;17.55;;
24157;SDS011;12316;50.904;4.200;2023-11-21T07:10:54;23.35;;;16.63;;
24157;SDS011;12316;50.904;4.200;2023-11-21T07:13:19;34.55;;;20.98;;
24157;SDS011;12316;50.904;4.200;2023-11-21T07:15:46;34.03;;;20.95;;
24157;SDS011;12316;50.904;4.200;2023-11-21T07:18:13;33.92;;;20.85;;
24157;SDS011;12316;50.904;4.200;2023-11-21T07:20:38;32.75;;;20.65;;
24157;SDS011;12316;50.904;4.200;2023-11-21T07:23:04;37.38;;;21.15;;
24157;SDS011;12316;50.904;4.200;2023-11-21T07:25:30;39.47;;;20.75;;
24157;SDS011;12316;50.904;4.200;2023-11-21T07:27:56;29.17;;;19.25;;
24157;SDS011;12316;50.904;4.200;2023-11-21T07:30:22;27.45;;;18.02;;
24157;SDS011;12316;50.904;4.200;2023-11-21T07:32:48;36.50;;;20.67;;
24157;SDS011;12316;50.904;4.200;2023-11-21T07:35:15;33.53;;;21.13;;
24157;SDS011;12316;50.904;4.200;2023-11-21T07:37:40;31.48;;;18.95;;
24157;SDS011;12316;50.904;4.200;2023-11-21T07:40:06;28.85;;;18.33;;
24157;SDS011;12316;50.904;4.200;2023-11-21T07:42:33;30.02;;;19.90;;
24157;SDS011;12316;50.904;4.200;2023-11-21T07:44:59;37.38;;;21.50;;
24157;SDS011;12316;50.904;4.200;2023-11-21T07:47:25;39.42;;;22.25;;
24157;SDS011;12316;50.904;4.200;2023-11-21T07:49:52;36.83;;;21.98;;
24157;SDS011;12316;50.904;4.200;2023-11-21T07:52:20;37.55;;;22.08;;
24157;SDS011;12316;50.904;4.200;2023-11-21T07:54:47;39.78;;;22.80;;
24157;SDS011;12316;50.904;4.200;2023-11-21T07:57:12;40.70;;;22.70;;
24157;SDS011;12316;50.904;4.200;2023-11-21T07:59:39;41.55;;;23.80;;
24157;SDS011;12316;50.904;4.200;2023-11-21T08:02:06;40.97;;;23.65;;
24157;SDS011;12316;50.904;4.200;2023-11-21T08:04:32;48.13;;;25.17;;
24157;SDS011;12316;50.904;4.200;2023-11-21T08:06:58;44.80;;;24.00;;
24157;SDS011;12316;50.904;4.200;2023-11-21T08:09:23;41.60;;;23.45;;
24157;SDS011;12316;50.904;4.200;2023-11-21T08:11:49;48.53;;;25.30;;
24157;SDS011;12316;50.904;4.200;2023-11-21T08:14:15;51.15;;;25.67;;
24157;SDS011;12316;50.904;4.200;2023-11-21T08:16:41;50.88;;;25.48;;
24157;SDS011;12316;50.904;4.200;2023-11-21T08:19:07;43.40;;;24.27;;
24157;SDS011;12316;50.904;4.200;2023-11-21T08:21:34;50.92;;;24.98;;
24157;SDS011;12316;50.904;4.200;2023-11-21T08:24:02;50.58;;;26.70;;
24157;SDS011;12316;50.904;4.200;2023-11-21T08:26:29;50.55;;;25.95;;
24157;SDS011;12316;50.904;4.200;2023-11-21T08:28:55;48.47;;;26.58;;
24157;SDS011;12316;50.904;4.200;2023-11-21T08:31:25;48.75;;;25.42;;
24157;SDS011;12316;50.904;4.200;2023-11-21T08:33:51;48.95;;;26.05;;
24157;SDS011;12316;50.904;4.200;2023-11-21T08:36:20;49.90;;;25.35;;
24157;SDS011;12316;50.904;4.200;2023-11-21T08:38:49;49.28;;;25.67;;
24157;SDS011;12316;50.904;4.200;2023-11-21T08:41:17;46.03;;;26.02;;
24157;SDS011;12316;50.904;4.200;2023-11-21T08:43:42;45.50;;;25.40;;
24157;SDS011;12316;50.904;4.200;2023-11-21T08:46:09;43.10;;;23.45;;
24157;SDS011;12316;50.904;4.200;2023-11-21T08:48:36;38.45;;;22.60;;
24157;SDS011;12316;50.904;4.200;2023-11-21T08:51:02;38.60;;;22.88;;
24157;SDS011;12316;50.904;4.200;2023-11-21T08:53:29;36.58;;;20.58;;
24157;SDS011;12316;50.904;4.200;2023-11-21T08:55:55;37.05;;;19.50;;
24157;SDS011;12316;50.904;4.200;2023-11-21T08:58:21;31.00;;;19.42;;
24157;SDS011;12316;50.904;4.200;2023-11-21T09:00:47;28.65;;;19.17;;
24157;SDS011;12316;50.904;4.200;2023-11-21T09:03:13;28.70;;;19.50;;
24157;SDS011;12316;50.904;4.200;2023-11-21T09:05:38;31.55;;;19.63;;
24157;SDS011;12316;50.904;4.200;2023-11-21T09:08:05;26.30;;;17.77;;
24157;SDS011;12316;50.904;4.200;2023-11-21T09:10:31;27.65;;;17.73;;
24157;SDS011;12316;50.904;4.200;2023-11-21T09:13:00;28.58;;;17.92;;
24157;SDS011;12316;50.904;4.200;2023-11-21T09:15:26;26.48;;;17.55;;
24157;SDS011;12316;50.904;4.200;2023-11-21T09:17:52;24.13;;;17.83;;
24157;SDS011;12316;50.904;4.200;2023-11-21T09:20:18;27.58;;;17.70;;
24157;SDS011;12316;50.904;4.200;2023-11-21T09:22:47;29.08;;;18.38;;
24157;SDS011;12316;50.904;4.200;2023-11-21T09:25:13;28.45;;;18.23;;
24157;SDS011;12316;50.904;4.200;2023-11-21T09:27:39;31.95;;;21.00;;
24157;SDS011;12316;50.904;4.200;2023-11-21T09:30:06;32.72;;;19.98;;
24157;SDS011;12316;50.904;4.200;2023-11-21T09:32:34;34.75;;;21.00;;
24157;SDS011;12316;50.904;4.200;2023-11-21T09:35:02;38.58;;;21.23;;
24157;SDS011;12316;50.904;4.200;2023-11-21T09:37:28;43.17;;;22.98;;
24157;SDS011;12316;50.904;4.200;2023-11-21T09:39:54;39.67;;;22.40;;
24157;SDS011;12316;50.904;4.200;2023-11-21T09:42:23;42.97;;;23.38;;
24157;SDS011;12316;50.904;4.200;2023-11-21T09:45:38;46.95;;;25.45;;
24157;SDS011;12316;50.904;4.200;2023-11-21T09:47:49;43.95;;;24.40;;
24157;SDS011;12316;50.904;4.200;2023-11-21T09:50:16;44.35;;;22.30;;
24157;SDS011;12316;50.904;4.200;2023-11-21T09:53:03;37.92;;;20.90;;
24157;SDS011;12316;50.904;4.200;2023-11-21T09:55:43;46.30;;;25.02;;
24157;SDS011;12316;50.904;4.200;2023-11-21T09:58:10;45.13;;;24.08;;
24157;SDS011;12316;50.904;4.200;2023-11-21T10:00:39;50.75;;;25.80;;
24157;SDS011;12316;50.904;4.200;2023-11-21T10:03:10;48.53;;;25.40;;
24157;SDS011;12316;50.904;4.200;2023-11-21T10:05:36;40.88;;;23.38;;
24157;SDS011;12316;50.904;4.200;2023-11-21T10:08:07;40.42;;;22.65;;
24157;SDS011;12316;50.904;4.200;2023-11-21T10:10:35;40.67;;;22.77;;
24157;SDS011;12316;50.904;4.200;2023-11-21T10:13:11;39.00;;;22.38;;
24157;SDS011;12316;50.904;4.200;2023-11-21T10:15:38;34.75;;;21.20;;
24157;SDS011;12316;50.904;4.200;2023-11-21T10:18:06;33.05;;;20.08;;
24157;SDS011;12316;50.904;4.200;2023-11-21T10:20:34;27.60;;;18.63;;
24157;SDS011;12316;50.904;4.200;2023-11-21T10:23:00;29.42;;;19.30;;
24157;SDS011;12316;50.904;4.200;2023-11-21T10:25:27;30.02;;;19.00;;
24157;SDS011;12316;50.904;4.200;2023-11-21T10:27:59;25.95;;;18.23;;
24157;SDS011;12316;50.904;4.200;2023-11-21T10:30:36;29.15;;;18.63;;
24157;SDS011;12316;50.904;4.200;2023-11-21T10:33:03;29.02;;;18.70;;
24157;SDS011;12316;50.904;4.200;2023-11-21T10:38:15;25.77;;;18.25;;
24157;SDS011;12316;50.904;4.200;2023-11-21T10:40:41;33.58;;;19.20;;
24157;SDS011;12316;50.904;4.200;2023-11-21T10:43:09;27.52;;;19.30;;
24157;SDS011;12316;50.904;4.200;2023-11-21T10:45:39;27.02;;;19.85;;
24157;SDS011;12316;50.904;4.200;2023-11-21T10:48:08;29.92;;;19.83;;
24157;SDS011;12316;50.904;4.200;2023-11-21T10:50:42;26.05;;;18.83;;
24157;SDS011;12316;50.904;4.200;2023-11-21T10:53:09;25.80;;;19.65;;
24157;SDS011;12316;50.904;4.200;2023-11-21T10:55:36;26.80;;;18.98;;
24157;SDS011;12316;50.904;4.200;2023-11-21T10:58:02;36.60;;;19.73;;
24157;SDS011;12316;50.904;4.200;2023-11-21T11:00:30;28.45;;;19.33;;
24157;SDS011;12316;50.904;4.200;2023-11-21T11:02:57;29.40;;;19.85;;
24157;SDS011;12316;50.904;4.200;2023-11-21T11:05:24;26.85;;;19.55;;
24157;SDS011;12316;50.904;4.200;2023-11-21T11:08:12;24.98;;;17.95;;
24157;SDS011;12316;50.904;4.200;2023-11-21T11:10:37;25.25;;;18.17;;
24157;SDS011;12316;50.904;4.200;2023-11-21T11:13:03;24.67;;;17.77;;
24157;SDS011;12316;50.904;4.200;2023-11-21T11:15:31;25.35;;;18.23;;
24157;SDS011;12316;50.904;4.200;2023-11-21T11:17:58;24.50;;;17.08;;
24157;SDS011;12316;50.904;4.200;2023-11-21T11:20:25;23.40;;;16.15;;
24157;SDS011;12316;50.904;4.200;2023-11-21T11:28:11;18.25;;;12.52;;
24157;SDS011;12316;50.904;4.200;2023-11-21T11:38:59;12.85;;;9.40;;
24157;SDS011;12316;50.904;4.200;2023-11-21T11:41:27;14.32;;;8.75;;
24157;SDS011;12316;50.904;4.200;2023-11-21T11:43:57;13.02;;;8.98;;
24157;SDS011;12316;50.904;4.200;2023-11-21T11:49:24;14.05;;;8.40;;
24157;SDS011;12316;50.904;4.200;2023-11-21T11:55:17;12.02;;;8.07;;
24157;SDS011;12316;50.904;4.200;2023-11-21T11:57:44;18.75;;;8.02;;
24157;SDS011;12316;50.904;4.200;2023-11-21T12:00:18;14.10;;;6.65;;
24157;SDS011;12316;50.904;4.200;2023-11-21T12:03:02;11.68;;;6.53;;
24157;SDS011;12316;50.904;4.200;2023-11-21T12:05:30;12.77;;;6.97;;
24157;SDS011;12316;50.904;4.200;2023-11-21T12:08:06;12.98;;;6.85;;
24157;SDS011;12316;50.904;4.200;2023-11-21T12:10:36;14.00;;;6.85;;
24157;SDS011;12316;50.904;4.200;2023-11-21T12:13:07;14.20;;;6.63;;
24157;SDS011;12316;50.904;4.200;2023-11-21T12:15:37;11.98;;;6.80;;
24157;SDS011;12316;50.904;4.200;2023-11-21T12:18:03;12.57;;;6.78;;
24157;SDS011;12316;50.904;4.200;2023-11-21T12:20:30;12.52;;;7.18;;
24157;SDS011;12316;50.904;4.200;2023-11-21T12:22:57;18.13;;;7.57;;
24157;SDS011;12316;50.904;4.200;2023-11-21T12:25:28;13.63;;;7.15;;
24157;SDS011;12316;50.904;4.200;2023-11-21T12:27:56;12.07;;;7.28;;
24157;SDS011;12316;50.904;4.200;2023-11-21T12:30:24;23.52;;;8.57;;
24157;SDS011;12316;50.904;4.200;2023-11-21T12:32:55;10.18;;;7.05;;
24157;SDS011;12316;50.904;4.200;2023-11-21T12:35:25;13.40;;;7.20;;
24157;SDS011;12316;50.904;4.200;2023-11-21T12:37:53;16.02;;;7.53;;
24157;SDS011;12316;50.904;4.200;2023-11-21T12:40:20;23.55;;;7.60;;
24157;SDS011;12316;50.904;4.200;2023-11-21T12:42:48;14.07;;;6.93;;
24157;SDS011;12316;50.904;4.200;2023-11-21T12:47:45;12.85;;;7.10;;
24157;SDS011;12316;50.904;4.200;2023-11-21T12:50:13;15.45;;;7.18;;
24157;SDS011;12316;50.904;4.200;2023-11-21T12:52:44;15.02;;;6.88;;
24157;SDS011;12316;50.904;4.200;2023-11-21T12:55:13;17.55;;;7.38;;
24157;SDS011;12316;50.904;4.200;2023-11-21T12:57:44;22.83;;;8.90;;
24157;SDS011;12316;50.904;4.200;2023-11-21T13:00:11;18.73;;;8.43;;
24157;SDS011;12316;50.904;4.200;2023-11-21T13:02:49;13.27;;;7.95;;
24157;SDS011;12316;50.904;4.200;2023-11-21T13:05:23;12.25;;;8.43;;
24157;SDS011;12316;50.904;4.200;2023-11-21T13:07:53;11.25;;;7.47;;
24157;SDS011;12316;50.904;4.200;2023-11-21T13:10:23;11.40;;;7.25;;
24157;SDS011;12316;50.904;4.200;2023-11-21T13:12:52;9.93;;;7.28;;
24157;SDS011;12316;50.904;4.200;2023-11-21T13:15:19;15.63;;;7.47;;
24157;SDS011;12316;50.904;4.200;2023-11-21T13:17:45;9.63;;;6.78;;
24157;SDS011;12316;50.904;4.200;2023-11-21T13:20:11;9.13;;;7.10;;
24157;SDS011;12316;50.904;4.200;2023-11-21T13:22:54;11.30;;;7.10;;
24157;SDS011;12316;50.904;4.200;2023-11-21T13:25:24;14.13;;;7.60;;
24157;SDS011;12316;50.904;4.200;2023-11-21T13:27:53;9.10;;;7.40;;
24157;SDS011;12316;50.904;4.200;2023-11-21T13:30:19;11.32;;;7.78;;
24157;SDS011;12316;50.904;4.200;2023-11-21T13:32:51;11.95;;;7.78;;
24157;SDS011;12316;50.904;4.200;2023-11-21T13:35:17;11.73;;;8.45;;
24157;SDS011;12316;50.904;4.200;2023-11-21T13:37:49;12.52;;;8.60;;
24157;SDS011;12316;50.904;4.200;2023-11-21T13:40:20;15.13;;;8.65;;
24157;SDS011;12316;50.904;4.200;2023-11-21T13:42:50;12.15;;;8.50;;
24157;SDS011;12316;50.904;4.200;2023-11-21T13:45:23;12.20;;;8.40;;
24157;SDS011;12316;50.904;4.200;2023-11-21T13:47:50;11.82;;;9.05;;
24157;SDS011;12316;50.904;4.200;2023-11-21T13:50:18;13.57;;;9.18;;
24157;SDS011;12316;50.904;4.200;2023-11-21T13:52:48;14.63;;;9.25;;
24157;SDS011;12316;50.904;4.200;2023-11-21T13:55:16;12.93;;;9.20;;
24157;SDS011;12316;50.904;4.200;2023-11-21T13:57:42;11.13;;;9.10;;
24157;SDS011;12316;50.904;4.200;2023-11-21T14:02:59;14.07;;;9.95;;
24157;SDS011;12316;50.904;4.200;2023-11-21T14:05:29;12.80;;;9.75;;
24157;SDS011;12316;50.904;4.200;2023-11-21T14:07:56;10.75;;;8.43;;
24157;SDS011;12316;50.904;4.200;2023-11-21T14:10:28;10.30;;;8.32;;
24157;SDS011;12316;50.904;4.200;2023-11-21T14:13:02;11.18;;;8.85;;
24157;SDS011;12316;50.904;4.200;2023-11-21T14:15:28;11.45;;;7.97;;
24157;SDS011;12316;50.904;4.200;2023-11-21T14:17:54;9.15;;;8.13;;
24157;SDS011;12316;50.904;4.200;2023-11-21T14:20:20;12.40;;;8.30;;
24157;SDS011;12316;50.904;4.200;2023-11-21T14:22:46;11.18;;;7.63;;
24157;SDS011;12316;50.904;4.200;2023-11-21T14:25:12;9.50;;;6.90;;
24157;SDS011;12316;50.904;4.200;2023-11-21T14:27:39;8.20;;;6.80;;
24157;SDS011;12316;50.904;4.200;2023-11-21T14:30:05;9.23;;;7.25;;
24157;SDS011;12316;50.904;4.200;2023-11-21T14:32:31;9.60;;;7.35;;
24157;SDS011;12316;50.904;4.200;2023-11-21T14:34:57;9.95;;;7.43;;
24157;SDS011;12316;50.904;4.200;2023-11-21T14:37:22;10.52;;;7.45;;
24157;SDS011;12316;50.904;4.200;2023-11-21T14:39:49;9.40;;;6.75;;
24157;SDS011;12316;50.904;4.200;2023-11-21T14:42:14;10.20;;;6.40;;
24157;SDS011;12316;50.904;4.200;2023-11-21T14:44:40;7.38;;;5.70;;
24157;SDS011;12316;50.904;4.200;2023-11-21T14:47:07;5.80;;;4.50;;
24157;SDS011;12316;50.904;4.200;2023-11-21T14:49:43;5.78;;;4.50;;
24157;SDS011;12316;50.904;4.200;2023-11-21T14:52:18;5.25;;;4.40;;
24157;SDS011;12316;50.904;4.200;2023-11-21T14:55:02;5.27;;;4.20;;
24157;SDS011;12316;50.904;4.200;2023-11-21T14:57:47;4.55;;;3.78;;
24157;SDS011;12316;50.904;4.200;2023-11-21T15:00:19;4.70;;;3.60;;
24157;SDS011;12316;50.904;4.200;2023-11-21T15:03:09;4.30;;;2.95;;
24157;SDS011;12316;50.904;4.200;2023-11-21T15:05:40;6.18;;;3.58;;
24157;SDS011;12316;50.904;4.200;2023-11-21T15:08:06;3.80;;;3.35;;
24157;SDS011;12316;50.904;4.200;2023-11-21T15:10:51;5.55;;;3.97;;
24157;SDS011;12316;50.904;4.200;2023-11-21T15:13:20;5.20;;;3.78;;
24157;SDS011;12316;50.904;4.200;2023-11-21T15:15:52;7.47;;;3.60;;
24157;SDS011;12316;50.904;4.200;2023-11-21T15:18:19;5.70;;;4.07;;
24157;SDS011;12316;50.904;4.200;2023-11-21T15:20:45;6.88;;;4.57;;
24157;SDS011;12316;50.904;4.200;2023-11-21T15:23:11;6.97;;;5.55;;
24157;SDS011;12316;50.904;4.200;2023-11-21T15:25:41;8.38;;;5.05;;